Wetterstation Vordersexau
Wetterdaten: Woche 27.08.12 - 02.09.12 (KW35)
Datum Zeit Temp. A. Feuchte A. Luftdruck Regen Wind Richtung Taupunkt Windchill Windben
27.08.2012 00:00 13,0 C 82 % 1020,8 hPa 0,0 l/m 0,0 km/h O-SO 10,0 C 13,0 C 0,0 km/h
27.08.2012 01:00 12,9 C 83 % 1020,8 hPa 0,0 l/m 0,0 km/h SO 10,1 C 12,9 C 0,0 km/h
27.08.2012 02:00 11,4 C 83 % 1020,5 hPa 0,0 l/m 0,0 km/h SO 8,6 C 11,4 C 0,0 km/h
27.08.2012 03:00 10,7 C 82 % 1020,2 hPa 0,0 l/m 0,0 km/h S-SO 7,8 C 10,7 C 0,0 km/h
27.08.2012 04:00 10,6 C 81 % 1020,3 hPa 0,0 l/m 0,0 km/h SO 7,5 C 10,6 C 0,0 km/h
27.08.2012 05:00 10,3 C 80 % 1020,1 hPa 0,0 l/m 0,0 km/h O-NO 7,0 C 10,3 C 0,0 km/h
27.08.2012 06:00 10,2 C 79 % 1020,3 hPa 0,0 l/m 0,0 km/h S-SO 6,7 C 10,2 C 0,0 km/h
27.08.2012 07:00 10,4 C 78 % 1020,7 hPa 0,0 l/m 3,2 km/h SO 6,7 C 10,4 C 1,8 km/h
27.08.2012 08:00 12,5 C 81 % 1020,6 hPa 0,0 l/m 0,0 km/h SO 9,3 C 12,5 C 0,0 km/h
27.08.2012 09:00 21,4 C 68 % 1020,5 hPa 0,0 l/m 0,0 km/h O 15,2 C 21,4 C 0,0 km/h
27.08.2012 10:00 26,6 C 51 % 1020,0 hPa 0,0 l/m 0,0 km/h W 15,6 C 26,6 C 0,0 km/h
27.08.2012 11:00 23,6 C 57 % 1019,6 hPa 0,0 l/m 1,3 km/h W-NW 14,6 C 23,6 C 0,7 km/h
27.08.2012 12:00 27,3 C 45 % 1019,0 hPa 0,0 l/m 0,0 km/h W-NW 14,3 C 27,3 C 0,0 km/h
27.08.2012 13:00 27,8 C 41 % 1018,3 hPa 0,0 l/m 0,0 km/h N 13,3 C 27,8 C 0,0 km/h
27.08.2012 14:00 27,3 C 40 % 1017,6 hPa 0,0 l/m 0,0 km/h S-SW 12,5 C 27,3 C 0,0 km/h
27.08.2012 15:00 30,6 C 32 % 1017,2 hPa 0,0 l/m 0,0 km/h S-SO 12,0 C 30,6 C 0,0 km/h
27.08.2012 16:00 34,9 C 25 % 1016,6 hPa 0,0 l/m 0,0 km/h W-NW 11,9 C 34,9 C 0,0 km/h
27.08.2012 17:00 31,9 C 33 % 1016,1 hPa 0,0 l/m 0,0 km/h W 13,6 C 31,9 C 0,0 km/h
27.08.2012 18:00 31,6 C 35 % 1015,8 hPa 0,0 l/m 0,0 km/h W 14,2 C 31,6 C 0,0 km/h
27.08.2012 19:00 28,9 C 38 % 1015,4 hPa 0,0 l/m 0,0 km/h O-NO 13,1 C 28,9 C 0,0 km/h
27.08.2012 20:00 19,3 C 65 % 1015,7 hPa 0,0 l/m 0,0 km/h SO 12,6 C 19,3 C 0,0 km/h
27.08.2012 21:00 15,9 C 74 % 1015,8 hPa 0,0 l/m 0,0 km/h O-NO 11,3 C 15,9 C 0,0 km/h
27.08.2012 22:00 14,6 C 77 % 1015,8 hPa 0,0 l/m 0,0 km/h O-NO 10,6 C 14,6 C 0,0 km/h
27.08.2012 23:00 13,0 C 80 % 1015,4 hPa 0,0 l/m 0,0 km/h O-NO 9,6 C 13,0 C 0,0 km/h
28.08.2012 00:00 12,8 C 80 % 1015,0 hPa 0,0 l/m 0,0 km/h O-NO 9,4 C 12,8 C 0,0 km/h
28.08.2012 01:00 12,7 C 79 % 1014,7 hPa 0,0 l/m 0,0 km/h O-NO 9,2 C 12,7 C 0,0 km/h
28.08.2012 02:00 11,5 C 81 % 1014,4 hPa 0,0 l/m 0,0 km/h SO 8,4 C 11,5 C 0,0 km/h
28.08.2012 03:00 11,1 C 83 % 1014,4 hPa 0,0 l/m 0,0 km/h O-SO 8,3 C 11,1 C 0,0 km/h
28.08.2012 04:00 10,9 C 83 % 1013,9 hPa 0,0 l/m 0,0 km/h SO 8,1 C 10,9 C 0,0 km/h
28.08.2012 05:00 11,0 C 83 % 1013,8 hPa 0,0 l/m 0,0 km/h N-NO 8,2 C 11,0 C 0,0 km/h
28.08.2012 06:00 10,6 C 83 % 1013,7 hPa 0,0 l/m 0,0 km/h N-NO 7,8 C 10,6 C 0,0 km/h
28.08.2012 07:00 10,5 C 83 % 1014,4 hPa 0,0 l/m 0,0 km/h NO 7,7 C 10,5 C 0,0 km/h
28.08.2012 08:00 13,4 C 83 % 1014,8 hPa 0,0 l/m 0,0 km/h O-NO 10,6 C 13,4 C 0,0 km/h
28.08.2012 09:00 24,4 C 60 % 1015,1 hPa 0,0 l/m 0,0 km/h S-SW 16,1 C 24,4 C 0,0 km/h
28.08.2012 10:00 26,6 C 50 % 1015,5 hPa 0,0 l/m 9,7 km/h W-SW 15,3 C 26,0 C 5,4 km/h
28.08.2012 11:00 25,0 C 50 % 1016,2 hPa 0,0 l/m 13,6 km/h W-SW 13,8 C 23,5 C 7,6 km/h
28.08.2012 12:00 25,8 C 51 % 1016,8 hPa 0,0 l/m 1,3 km/h W-SW 14,9 C 25,8 C 0,7 km/h
28.08.2012 13:00 28,5 C 45 % 1017,1 hPa 0,0 l/m 0,0 km/h W-SW 15,4 C 28,5 C 0,0 km/h
28.08.2012 14:00 30,4 C 39 % 1017,1 hPa 0,0 l/m 0,0 km/h W-NW 14,9 C 30,4 C 0,0 km/h
28.08.2012 15:00 27,3 C 44 % 1017,4 hPa 0,0 l/m 0,0 km/h W-NW 14,0 C 27,3 C 0,0 km/h
28.08.2012 16:00 25,1 C 54 % 1017,0 hPa 0,0 l/m 0,0 km/h W-SW 15,1 C 25,1 C 0,0 km/h
28.08.2012 17:00 23,4 C 57 % 1017,4 hPa 0,0 l/m 5,8 km/h S-SW 14,4 C 23,4 C 3,2 km/h
28.08.2012 18:00 23,6 C 60 % 1017,0 hPa 0,0 l/m 0,0 km/h W 15,4 C 23,6 C 0,0 km/h
28.08.2012 19:00 22,9 C 60 % 1017,1 hPa 0,0 l/m 0,0 km/h S-SW 14,7 C 22,9 C 0,0 km/h
28.08.2012 20:00 20,4 C 69 % 1017,2 hPa 0,0 l/m 0,0 km/h S-SO 14,5 C 20,4 C 0,0 km/h
28.08.2012 21:00 16,9 C 78 % 1017,8 hPa 0,0 l/m 0,0 km/h SO 13,0 C 16,9 C 0,0 km/h
28.08.2012 22:00 15,8 C 82 % 1018,2 hPa 0,0 l/m 0,0 km/h SO 12,7 C 15,8 C 0,0 km/h
28.08.2012 23:00 15,1 C 82 % 1017,9 hPa 0,0 l/m 0,0 km/h SO 12,0 C 15,1 C 0,0 km/h
29.08.2012 00:00 14,7 C 82 % 1018,1 hPa 0,0 l/m 0,0 km/h O-SO 11,7 C 14,7 C 0,0 km/h
29.08.2012 01:00 14,3 C 82 % 1018,0 hPa 0,0 l/m 0,0 km/h SO 11,3 C 14,3 C 0,0 km/h
29.08.2012 02:00 14,4 C 82 % 1017,9 hPa 0,0 l/m 0,0 km/h SO 11,4 C 14,4 C 0,0 km/h
29.08.2012 03:00 14,3 C 82 % 1017,7 hPa 0,0 l/m 0,0 km/h SO 11,3 C 14,3 C 0,0 km/h
29.08.2012 04:00 13,8 C 82 % 1017,9 hPa 0,0 l/m 0,0 km/h O-NO 10,8 C 13,8 C 0,0 km/h
29.08.2012 05:00 12,4 C 83 % 1017,8 hPa 0,0 l/m 0,0 km/h SO 9,6 C 12,4 C 0,0 km/h
29.08.2012 06:00 12,6 C 81 % 1017,5 hPa 0,0 l/m 0,0 km/h O-SO 9,4 C 12,6 C 0,0 km/h
29.08.2012 07:00 13,4 C 78 % 1017,6 hPa 0,0 l/m 0,0 km/h SO 9,6 C 13,4 C 0,0 km/h
29.08.2012 08:00 16,1 C 82 % 1017,2 hPa 0,0 l/m 0,0 km/h W 13,0 C 16,1 C 0,0 km/h
29.08.2012 09:00 23,6 C 66 % 1017,3 hPa 0,0 l/m 0,0 km/h S 16,9 C 23,6 C 0,0 km/h
29.08.2012 10:00 26,1 C 58 % 1017,1 hPa 0,0 l/m 0,0 km/h NW 17,2 C 26,1 C 0,0 km/h
29.08.2012 11:00 27,1 C 53 % 1016,9 hPa 0,0 l/m 0,0 km/h S-SW 16,7 C 27,1 C 0,0 km/h
29.08.2012 12:00 30,9 C 46 % 1016,6 hPa 0,0 l/m 0,0 km/h W 17,9 C 30,9 C 0,0 km/h
29.08.2012 13:00 31,1 C 45 % 1016,3 hPa 0,0 l/m 0,0 km/h W-SW 17,7 C 31,1 C 0,0 km/h
29.08.2012 14:00 31,1 C 45 % 1015,7 hPa 0,0 l/m 0,0 km/h W-NW 17,7 C 31,1 C 0,0 km/h
29.08.2012 15:00 34,4 C 40 % 1015,1 hPa 0,0 l/m 5,2 km/h W 18,8 C 34,4 C 2,9 km/h
29.08.2012 16:00 33,9 C 39 % 1014,6 hPa 0,0 l/m 0,0 km/h N 18,0 C 33,9 C 0,0 km/h
29.08.2012 17:00 36,1 C 37 % 1013,9 hPa 0,0 l/m 0,0 km/h W-NW 19,1 C 36,1 C 0,0 km/h
29.08.2012 18:00 32,9 C 42 % 1013,8 hPa 0,0 l/m 0,0 km/h S 18,3 C 32,9 C 0,0 km/h
29.08.2012 19:00 27,7 C 58 % 1014,9 hPa 0,0 l/m 0,0 km/h SO 18,7 C 27,7 C 0,0 km/h
29.08.2012 20:00 22,9 C 61 % 1014,7 hPa 0,0 l/m 0,0 km/h W-SW 15,0 C 22,9 C 0,0 km/h
29.08.2012 21:00 22,1 C 63 % 1015,1 hPa 0,0 l/m 0,6 km/h N-NO 14,7 C 22,1 C 0,4 km/h
29.08.2012 22:00 19,2 C 75 % 1014,8 hPa 0,0 l/m 0,0 km/h O-NO 14,7 C 19,2 C 0,0 km/h
29.08.2012 23:00 17,6 C 80 % 1015,4 hPa 0,0 l/m 0,0 km/h N-NO 14,1 C 17,6 C 0,0 km/h
30.08.2012 00:00 17,7 C 80 % 1015,5 hPa 0,0 l/m 0,0 km/h N-NO 14,2 C 17,7 C 0,0 km/h
30.08.2012 01:00 17,3 C 81 % 1015,4 hPa 0,0 l/m 0,0 km/h NO 14,0 C 17,3 C 0,0 km/h
30.08.2012 02:00 17,0 C 82 % 1015,5 hPa 0,0 l/m 0,0 km/h S 13,9 C 17,0 C 0,0 km/h
30.08.2012 03:00 17,6 C 81 % 1016,2 hPa 0,4 l/m 11,7 km/h S-SO 14,3 C 15,4 C 6,5 km/h
30.08.2012 04:00 17,4 C 81 % 1015,5 hPa 0,7 l/m 0,0 km/h NO 14,1 C 17,4 C 0,0 km/h
30.08.2012 05:00 17,0 C 80 % 1015,1 hPa 0,0 l/m 0,0 km/h O-SO 13,5 C 17,0 C 0,0 km/h
30.08.2012 06:00 16,8 C 78 % 1015,1 hPa 0,0 l/m 0,0 km/h O-SO 12,9 C 16,8 C 0,0 km/h
30.08.2012 07:00 16,8 C 77 % 1015,2 hPa 0,0 l/m 0,0 km/h SO 12,7 C 16,8 C 0,0 km/h
30.08.2012 08:00 17,4 C 75 % 1015,6 hPa 0,0 l/m 0,0 km/h O 12,9 C 17,4 C 0,0 km/h
30.08.2012 09:00 18,8 C 78 % 1015,6 hPa 0,0 l/m 0,0 km/h NO 14,9 C 18,8 C 0,0 km/h
30.08.2012 10:00 19,4 C 81 % 1015,9 hPa 0,0 l/m 0,0 km/h W 16,1 C 19,4 C 0,0 km/h
30.08.2012 11:00 19,4 C 82 % 1016,2 hPa 0,0 l/m 0,0 km/h W-SW 16,2 C 19,4 C 0,0 km/h
30.08.2012 12:00 19,6 C 82 % 1016,2 hPa 0,4 l/m 0,0 km/h W 16,4 C 19,6 C 0,0 km/h
30.08.2012 13:00 19,8 C 82 % 1015,9 hPa 0,0 l/m 0,0 km/h W-NW 16,6 C 19,8 C 0,0 km/h
30.08.2012 14:00 20,8 C 79 % 1016,3 hPa 0,0 l/m 0,0 km/h NW 17,0 C 20,8 C 0,0 km/h
30.08.2012 15:00 20,9 C 73 % 1016,3 hPa 0,0 l/m 0,0 km/h S-SO 15,9 C 20,9 C 0,0 km/h
30.08.2012 16:00 17,6 C 81 % 1016,7 hPa 0,7 l/m 0,0 km/h S 14,3 C 17,6 C 0,0 km/h
30.08.2012 17:00 17,6 C 82 % 1017,0 hPa 0,4 l/m 0,0 km/h S-SO 14,5 C 17,6 C 0,0 km/h
30.08.2012 18:00 17,7 C 82 % 1017,0 hPa 0,0 l/m 0,0 km/h O-SO 14,6 C 17,7 C 0,0 km/h
30.08.2012 19:00 17,2 C 82 % 1017,1 hPa 0,0 l/m 0,0 km/h SO 14,1 C 17,2 C 0,0 km/h
30.08.2012 20:00 16,2 C 82 % 1017,4 hPa 0,0 l/m 0,0 km/h SO 13,1 C 16,2 C 0,0 km/h
30.08.2012 21:00 15,4 C 80 % 1017,8 hPa 0,0 l/m 0,0 km/h O-SO 12,0 C 15,4 C 0,0 km/h
30.08.2012 22:00 14,3 C 80 % 1017,7 hPa 0,0 l/m 0,0 km/h O-NO 10,9 C 14,3 C 0,0 km/h
30.08.2012 23:00 13,2 C 79 % 1017,7 hPa 0,0 l/m 0,0 km/h SO 9,6 C 13,2 C 0,0 km/h
31.08.2012 00:00 13,1 C 77 % 1017,4 hPa 0,0 l/m 0,0 km/h SO 9,2 C 13,1 C 0,0 km/h
31.08.2012 01:00 13,6 C 73 % 1017,3 hPa 0,0 l/m 0,0 km/h SO 8,9 C 13,6 C 0,0 km/h
31.08.2012 02:00 13,6 C 70 % 1017,0 hPa 0,0 l/m 0,0 km/h SO 8,2 C 13,6 C 0,0 km/h
31.08.2012 03:00 13,4 C 70 % 1017,1 hPa 0,0 l/m 0,0 km/h S-SO 8,0 C 13,4 C 0,0 km/h
31.08.2012 04:00 13,4 C 69 % 1017,1 hPa 0,0 l/m 0,0 km/h S-SO 7,8 C 13,4 C 0,0 km/h
31.08.2012 05:00 13,3 C 69 % 1016,9 hPa 0,0 l/m 0,0 km/h SO 7,7 C 13,3 C 0,0 km/h
31.08.2012 06:00 13,2 C 68 % 1016,7 hPa 0,0 l/m 0,0 km/h SO 7,4 C 13,2 C 0,0 km/h
31.08.2012 07:00 13,3 C 67 % 1016,8 hPa 0,0 l/m 0,0 km/h S-SO 7,3 C 13,3 C 0,0 km/h
31.08.2012 08:00 12,9 C 67 % 1017,4 hPa 0,4 l/m 0,0 km/h S-SO 6,9 C 12,9 C 0,0 km/h
31.08.2012 09:00 14,8 C 61 % 1017,6 hPa 0,0 l/m 0,0 km/h W-SW 7,4 C 14,8 C 0,0 km/h
31.08.2012 10:00 14,6 C 83 % 1018,0 hPa 0,0 l/m 0,0 km/h S-SW 11,7 C 14,6 C 0,0 km/h
31.08.2012 11:00 15,9 C 79 % 1017,6 hPa 0,0 l/m 0,0 km/h SO 12,3 C 15,9 C 0,0 km/h
31.08.2012 12:00 14,8 C 83 % 1017,9 hPa 3,6 l/m 0,0 km/h NW 11,9 C 14,8 C 0,0 km/h
31.08.2012 13:00 15,9 C 79 % 1018,0 hPa 0,4 l/m 0,0 km/h S-SO 12,3 C 15,9 C 0,0 km/h
31.08.2012 14:00 17,3 C 76 % 1017,7 hPa 0,0 l/m 0,0 km/h SO 13,0 C 17,3 C 0,0 km/h
31.08.2012 15:00 14,4 C 81 % 1017,9 hPa 1,4 l/m 0,0 km/h N 11,2 C 14,4 C 0,0 km/h
31.08.2012 16:00 15,8 C 80 % 1018,2 hPa 0,0 l/m 0,0 km/h S-SW 12,4 C 15,8 C 0,0 km/h
31.08.2012 17:00 15,6 C 79 % 1018,2 hPa 0,4 l/m 0,0 km/h W-NW 12,0 C 15,6 C 0,0 km/h
31.08.2012 18:00 13,5 C 83 % 1018,4 hPa 0,4 l/m 0,0 km/h W-NW 10,7 C 13,5 C 0,0 km/h
31.08.2012 19:00 13,2 C 80 % 1018,6 hPa 1,1 l/m 0,0 km/h N-NW 9,8 C 13,2 C 0,0 km/h
31.08.2012 20:00 12,8 C 80 % 1018,8 hPa 0,0 l/m 0,0 km/h W-NW 9,4 C 12,8 C 0,0 km/h
31.08.2012 21:00 12,6 C 83 % 1019,1 hPa 0,0 l/m 0,0 km/h NW 9,8 C 12,6 C 0,0 km/h
31.08.2012 22:00 11,5 C 80 % 1019,3 hPa 0,4 l/m 0,0 km/h W-NW 8,2 C 11,5 C 0,0 km/h
31.08.2012 23:00 11,4 C 76 % 1019,5 hPa 0,0 l/m 0,0 km/h W-NW 7,3 C 11,4 C 0,0 km/h
01.09.2012 00:00 11,2 C 76 % 1019,6 hPa 0,0 l/m 0,0 km/h NW 7,1 C 11,2 C 0,0 km/h
01.09.2012 01:00 10,9 C 78 % 1019,8 hPa 0,4 l/m 0,0 km/h W-NW 7,2 C 10,9 C 0,0 km/h
01.09.2012 02:00 10,8 C 76 % 1019,7 hPa 0,7 l/m 0,0 km/h NW 6,7 C 10,8 C 0,0 km/h
01.09.2012 03:00 10,7 C 75 % 1019,7 hPa 0,0 l/m 0,0 km/h N-NO 6,5 C 10,7 C 0,0 km/h
01.09.2012 04:00 10,5 C 75 % 1020,0 hPa 0,7 l/m 0,0 km/h NW 6,3 C 10,5 C 0,0 km/h
01.09.2012 05:00 10,6 C 73 % 1019,7 hPa 0,0 l/m 0,0 km/h N-NW 6,0 C 10,6 C 0,0 km/h
01.09.2012 06:00 10,8 C 72 % 1019,5 hPa 0,0 l/m 0,0 km/h N-NO 6,0 C 10,8 C 0,0 km/h
01.09.2012 07:00 11,1 C 72 % 1019,8 hPa 0,0 l/m 0,0 km/h W 6,2 C 11,1 C 0,0 km/h
01.09.2012 08:00 11,3 C 72 % 1020,1 hPa 0,0 l/m 0,0 km/h N-NO 6,4 C 11,3 C 0,0 km/h
01.09.2012 09:00 11,9 C 71 % 1020,2 hPa 0,7 l/m 0,0 km/h N-NO 6,8 C 11,9 C 0,0 km/h
01.09.2012 10:00 12,5 C 74 % 1020,3 hPa 0,0 l/m 0,0 km/h W 8,0 C 12,5 C 0,0 km/h
01.09.2012 11:00 13,9 C 82 % 1020,8 hPa 0,0 l/m 0,0 km/h O-SO 10,9 C 13,9 C 0,0 km/h
01.09.2012 12:00 16,1 C 83 % 1020,4 hPa 0,0 l/m 0,0 km/h N 13,2 C 16,1 C 0,0 km/h
01.09.2012 13:00 18,1 C 74 % 1019,9 hPa 0,0 l/m 0,0 km/h N 13,4 C 18,1 C 0,0 km/h
01.09.2012 14:00 17,6 C 76 % 1020,1 hPa 0,0 l/m 0,0 km/h N-NO 13,3 C 17,6 C 0,0 km/h
01.09.2012 15:00 16,1 C 80 % 1020,2 hPa 0,0 l/m 0,0 km/h N-NO 12,6 C 16,1 C 0,0 km/h
01.09.2012 16:00 15,2 C 82 % 1020,1 hPa 0,0 l/m 0,0 km/h N-NO 12,1 C 15,2 C 0,0 km/h
01.09.2012 17:00 15,9 C 82 % 1020,2 hPa 0,0 l/m 0,0 km/h N 12,8 C 15,9 C 0,0 km/h
01.09.2012 18:00 15,8 C 81 % 1020,3 hPa 0,0 l/m 0,0 km/h O-SO 12,5 C 15,8 C 0,0 km/h
01.09.2012 19:00 14,9 C 83 % 1020,5 hPa 0,0 l/m 0,0 km/h SO 12,0 C 14,9 C 0,0 km/h
01.09.2012 20:00 14,1 C 82 % 1020,6 hPa 0,0 l/m 0,0 km/h N-NO 11,1 C 14,1 C 0,0 km/h
01.09.2012 21:00 13,9 C 81 % 1020,9 hPa 0,0 l/m 0,0 km/h W-NW 10,7 C 13,9 C 0,0 km/h
01.09.2012 22:00 13,9 C 79 % 1020,9 hPa 0,0 l/m 0,0 km/h N-NO 10,3 C 13,9 C 0,0 km/h
01.09.2012 23:00 13,4 C 83 % 1020,9 hPa 0,0 l/m 0,0 km/h O-SO 10,6 C 13,4 C 0,0 km/h
02.09.2012 00:00 12,3 C 81 % 1021,0 hPa 0,0 l/m 0,0 km/h O-SO 9,1 C 12,3 C 0,0 km/h
02.09.2012 01:00 12,9 C 79 % 1020,8 hPa 0,0 l/m 0,0 km/h O-SO 9,3 C 12,9 C 0,0 km/h
02.09.2012 02:00 13,2 C 77 % 1020,8 hPa 0,0 l/m 0,0 km/h NO 9,3 C 13,2 C 0,0 km/h
02.09.2012 03:00 13,9 C 76 % 1020,4 hPa 0,0 l/m 0,0 km/h SO 9,7 C 13,9 C 0,0 km/h
02.09.2012 04:00 13,6 C 77 % 1020,3 hPa 0,0 l/m 0,0 km/h W 9,6 C 13,6 C 0,0 km/h
02.09.2012 05:00 13,7 C 76 % 1019,9 hPa 0,0 l/m 0,0 km/h O-NO 9,5 C 13,7 C 0,0 km/h
02.09.2012 06:00 13,6 C 78 % 1020,0 hPa 0,0 l/m 0,0 km/h NW 9,8 C 13,6 C 0,0 km/h
02.09.2012 07:00 13,5 C 77 % 1020,2 hPa 0,0 l/m 0,0 km/h W-NW 9,5 C 13,5 C 0,0 km/h
02.09.2012 08:00 13,4 C 78 % 1020,6 hPa 0,0 l/m 0,0 km/h NW 9,6 C 13,4 C 0,0 km/h
02.09.2012 09:00 13,6 C 82 % 1020,5 hPa 0,0 l/m 0,0 km/h W-NW 10,6 C 13,6 C 0,0 km/h
02.09.2012 10:00 14,5 C 83 % 1021,0 hPa 0,0 l/m 0,0 km/h W-NW 11,6 C 14,5 C 0,0 km/h
02.09.2012 11:00 16,9 C 80 % 1021,3 hPa 0,0 l/m 0,0 km/h W 13,4 C 16,9 C 0,0 km/h
02.09.2012 12:00 16,3 C 81 % 1021,3 hPa 0,0 l/m 0,0 km/h W-NW 13,0 C 16,3 C 0,0 km/h
02.09.2012 13:00 17,2 C 79 % 1021,0 hPa 0,0 l/m 0,0 km/h SW 13,5 C 17,2 C 0,0 km/h
02.09.2012 14:00 18,9 C 76 % 1020,9 hPa 0,0 l/m 0,0 km/h W 14,6 C 18,9 C 0,0 km/h
02.09.2012 15:00 18,6 C 76 % 1021,1 hPa 0,0 l/m 0,0 km/h NW 14,3 C 18,6 C 0,0 km/h
02.09.2012 16:00 18,9 C 77 % 1020,9 hPa 0,0 l/m 0,0 km/h NO 14,8 C 18,9 C 0,0 km/h
02.09.2012 17:00 22,2 C 68 % 1020,8 hPa 0,0 l/m 0,0 km/h NO 16,0 C 22,2 C 0,0 km/h
02.09.2012 18:00 20,8 C 70 % 1021,0 hPa 0,0 l/m 0,0 km/h O-NO 15,1 C 20,8 C 0,0 km/h
02.09.2012 19:00 18,3 C 77 % 1021,4 hPa 0,0 l/m 0,0 km/h O 14,2 C 18,3 C 0,0 km/h
02.09.2012 20:00 16,8 C 82 % 1021,3 hPa 0,0 l/m 0,0 km/h O-NO 13,7 C 16,8 C 0,0 km/h
02.09.2012 21:00 16,1 C 83 % 1021,9 hPa 0,0 l/m 0,0 km/h N-NO 13,2 C 16,1 C 0,0 km/h
02.09.2012 22:00 15,9 C 83 % 1022,1 hPa 0,0 l/m 0,0 km/h S 13,0 C 15,9 C 0,0 km/h
02.09.2012 23:00 15,3 C 82 % 1022,1 hPa 0,0 l/m 0,0 km/h SO 12,2 C 15,3 C 0,0 km/h
Min-Datum _ 27.08.12 27.08.12 28.08.12 - 27.08.12 - 01.09.12 27.08.12 27.08.12
_ Min-Zeit 06:19 16:19 06:19 - 00:19 - 06:19 06:19 00:19
Minimum _ 10,2 C 25 % 1013,7 hPa - 0,0 km/h - 6,0 C 10,2 C 0,0 km/h
Max-Datum _ 29.08.12 27.08.12 02.09.12 31.08.12 28.08.12 - 29.08.12 29.08.12 28.08.12
_ Max-Zeit 17:19 01:19 22:19 12:19 11:19 - 17:19 17:19 11:19
Maximum _ 36,1 C 83 % 1022,1 hPa 3,6 l/m 13,6 km/h
W-SW
- 19,1 C 36,1 C 7,6 km/h
W-SW
Durchschnitt _ 17,5 C 72 % 1018,0 hPa #12,8 l/m 0,3 km/h SO 11,9 C 17,4 C 0,2 km/h
www.sexauwetter.de